sensor_id;sensor_type;location;lat;lon;timestamp;P1;durP1;ratioP1;P2;durP2;ratioP2
5460;SDS011;2753;49.196;8.286;2023-07-29T00:00:42;3.07;;;2.50;;
5460;SDS011;2753;49.196;8.286;2023-07-29T00:03:09;2.70;;;2.20;;
5460;SDS011;2753;49.196;8.286;2023-07-29T00:05:35;3.33;;;3.00;;
5460;SDS011;2753;49.196;8.286;2023-07-29T00:08:01;4.23;;;2.60;;
5460;SDS011;2753;49.196;8.286;2023-07-29T00:10:27;5.13;;;2.73;;
5460;SDS011;2753;49.196;8.286;2023-07-29T00:12:53;1.90;;;1.80;;
5460;SDS011;2753;49.196;8.286;2023-07-29T00:15:19;3.57;;;2.30;;
5460;SDS011;2753;49.196;8.286;2023-07-29T00:17:44;3.37;;;2.10;;
5460;SDS011;2753;49.196;8.286;2023-07-29T00:20:10;2.57;;;2.20;;
5460;SDS011;2753;49.196;8.286;2023-07-29T00:22:36;2.20;;;1.83;;
5460;SDS011;2753;49.196;8.286;2023-07-29T00:25:01;1.80;;;1.70;;
5460;SDS011;2753;49.196;8.286;2023-07-29T00:27:27;2.17;;;2.07;;
5460;SDS011;2753;49.196;8.286;2023-07-29T00:29:53;2.23;;;2.03;;
5460;SDS011;2753;49.196;8.286;2023-07-29T00:32:18;2.57;;;2.37;;
5460;SDS011;2753;49.196;8.286;2023-07-29T00:34:44;3.97;;;1.87;;
5460;SDS011;2753;49.196;8.286;2023-07-29T00:37:10;2.13;;;2.00;;
5460;SDS011;2753;49.196;8.286;2023-07-29T00:39:36;2.60;;;1.60;;
5460;SDS011;2753;49.196;8.286;2023-07-29T00:42:04;3.33;;;1.87;;
5460;SDS011;2753;49.196;8.286;2023-07-29T00:44:30;2.00;;;1.90;;
5460;SDS011;2753;49.196;8.286;2023-07-29T00:46:59;1.37;;;1.27;;
5460;SDS011;2753;49.196;8.286;2023-07-29T00:49:27;1.90;;;1.70;;
5460;SDS011;2753;49.196;8.286;2023-07-29T00:51:53;2.50;;;1.90;;
5460;SDS011;2753;49.196;8.286;2023-07-29T00:54:19;2.30;;;2.13;;
5460;SDS011;2753;49.196;8.286;2023-07-29T00:56:45;1.90;;;1.80;;
5460;SDS011;2753;49.196;8.286;2023-07-29T00:59:11;3.90;;;2.10;;
5460;SDS011;2753;49.196;8.286;2023-07-29T01:01:36;2.37;;;2.17;;
5460;SDS011;2753;49.196;8.286;2023-07-29T01:04:02;3.40;;;2.23;;
5460;SDS011;2753;49.196;8.286;2023-07-29T01:09:03;1.70;;;1.60;;
5460;SDS011;2753;49.196;8.286;2023-07-29T01:11:58;4.70;;;2.30;;
5460;SDS011;2753;49.196;8.286;2023-07-29T01:17:23;2.13;;;1.93;;
5460;SDS011;2753;49.196;8.286;2023-07-29T01:20:07;6.33;;;2.17;;
5460;SDS011;2753;49.196;8.286;2023-07-29T01:22:36;3.17;;;1.90;;
5460;SDS011;2753;49.196;8.286;2023-07-29T01:25:02;1.67;;;1.57;;
5460;SDS011;2753;49.196;8.286;2023-07-29T01:27:28;1.67;;;1.57;;
5460;SDS011;2753;49.196;8.286;2023-07-29T01:29:55;5.93;;;1.90;;
5460;SDS011;2753;49.196;8.286;2023-07-29T01:32:39;3.70;;;2.40;;
5460;SDS011;2753;49.196;8.286;2023-07-29T01:35:22;4.23;;;2.07;;
5460;SDS011;2753;49.196;8.286;2023-07-29T01:37:58;4.57;;;2.00;;
5460;SDS011;2753;49.196;8.286;2023-07-29T01:40:38;6.27;;;1.90;;
5460;SDS011;2753;49.196;8.286;2023-07-29T01:43:04;2.07;;;1.97;;
5460;SDS011;2753;49.196;8.286;2023-07-29T01:45:32;5.20;;;1.80;;
5460;SDS011;2753;49.196;8.286;2023-07-29T01:48:02;4.27;;;1.87;;
5460;SDS011;2753;49.196;8.286;2023-07-29T01:50:29;2.93;;;1.80;;
5460;SDS011;2753;49.196;8.286;2023-07-29T01:52:56;3.17;;;2.30;;
5460;SDS011;2753;49.196;8.286;2023-07-29T01:55:22;7.50;;;1.80;;
5460;SDS011;2753;49.196;8.286;2023-07-29T01:57:48;2.40;;;1.83;;
5460;SDS011;2753;49.196;8.286;2023-07-29T02:00:14;8.07;;;1.67;;
5460;SDS011;2753;49.196;8.286;2023-07-29T02:02:40;4.63;;;2.23;;
5460;SDS011;2753;49.196;8.286;2023-07-29T02:05:06;2.80;;;1.90;;
5460;SDS011;2753;49.196;8.286;2023-07-29T02:07:32;2.20;;;2.10;;
5460;SDS011;2753;49.196;8.286;2023-07-29T02:09:57;2.67;;;1.93;;
5460;SDS011;2753;49.196;8.286;2023-07-29T02:12:23;7.83;;;2.10;;
5460;SDS011;2753;49.196;8.286;2023-07-29T02:14:49;2.43;;;2.10;;
5460;SDS011;2753;49.196;8.286;2023-07-29T02:17:15;3.80;;;2.17;;
5460;SDS011;2753;49.196;8.286;2023-07-29T02:19:40;3.50;;;2.00;;
5460;SDS011;2753;49.196;8.286;2023-07-29T02:22:06;3.27;;;2.97;;
5460;SDS011;2753;49.196;8.286;2023-07-29T02:24:32;3.00;;;2.40;;
5460;SDS011;2753;49.196;8.286;2023-07-29T02:26:57;3.43;;;3.10;;
5460;SDS011;2753;49.196;8.286;2023-07-29T02:29:23;15.70;;;4.40;;
5460;SDS011;2753;49.196;8.286;2023-07-29T02:31:50;3.57;;;2.67;;
5460;SDS011;2753;49.196;8.286;2023-07-29T02:34:15;3.40;;;2.77;;
5460;SDS011;2753;49.196;8.286;2023-07-29T02:36:41;3.57;;;3.20;;
5460;SDS011;2753;49.196;8.286;2023-07-29T02:39:07;3.60;;;3.30;;
5460;SDS011;2753;49.196;8.286;2023-07-29T02:41:33;5.73;;;3.33;;
5460;SDS011;2753;49.196;8.286;2023-07-29T02:43:58;9.23;;;3.23;;
5460;SDS011;2753;49.196;8.286;2023-07-29T02:49:46;3.47;;;3.00;;
5460;SDS011;2753;49.196;8.286;2023-07-29T02:52:12;7.50;;;4.20;;
5460;SDS011;2753;49.196;8.286;2023-07-29T02:54:38;4.77;;;3.30;;
5460;SDS011;2753;49.196;8.286;2023-07-29T02:57:03;3.80;;;3.50;;
5460;SDS011;2753;49.196;8.286;2023-07-29T02:59:29;6.47;;;3.47;;
5460;SDS011;2753;49.196;8.286;2023-07-29T03:01:55;5.37;;;3.40;;
5460;SDS011;2753;49.196;8.286;2023-07-29T03:04:20;5.90;;;3.77;;
5460;SDS011;2753;49.196;8.286;2023-07-29T03:06:46;3.47;;;3.17;;
5460;SDS011;2753;49.196;8.286;2023-07-29T03:09:13;6.03;;;3.87;;
5460;SDS011;2753;49.196;8.286;2023-07-29T03:11:39;7.23;;;4.30;;
5460;SDS011;2753;49.196;8.286;2023-07-29T03:14:05;7.30;;;3.60;;
5460;SDS011;2753;49.196;8.286;2023-07-29T03:16:31;5.10;;;4.60;;
5460;SDS011;2753;49.196;8.286;2023-07-29T03:18:56;5.27;;;4.10;;
5460;SDS011;2753;49.196;8.286;2023-07-29T03:21:22;8.80;;;3.50;;
5460;SDS011;2753;49.196;8.286;2023-07-29T03:23:48;5.53;;;4.13;;
5460;SDS011;2753;49.196;8.286;2023-07-29T03:26:14;7.83;;;4.20;;
5460;SDS011;2753;49.196;8.286;2023-07-29T03:28:42;5.47;;;4.17;;
5460;SDS011;2753;49.196;8.286;2023-07-29T03:31:08;10.23;;;3.83;;
5460;SDS011;2753;49.196;8.286;2023-07-29T03:33:35;7.60;;;4.13;;
5460;SDS011;2753;49.196;8.286;2023-07-29T03:36:00;4.43;;;3.40;;
5460;SDS011;2753;49.196;8.286;2023-07-29T03:38:26;3.47;;;3.20;;
5460;SDS011;2753;49.196;8.286;2023-07-29T03:40:52;3.80;;;3.50;;
5460;SDS011;2753;49.196;8.286;2023-07-29T03:43:18;8.43;;;3.40;;
5460;SDS011;2753;49.196;8.286;2023-07-29T03:45:44;4.97;;;3.83;;
5460;SDS011;2753;49.196;8.286;2023-07-29T03:48:10;6.70;;;3.50;;
5460;SDS011;2753;49.196;8.286;2023-07-29T03:50:36;4.00;;;3.70;;
5460;SDS011;2753;49.196;8.286;2023-07-29T03:53:02;3.60;;;3.30;;
5460;SDS011;2753;49.196;8.286;2023-07-29T03:55:28;6.73;;;3.50;;
5460;SDS011;2753;49.196;8.286;2023-07-29T03:58:00;4.10;;;3.70;;
5460;SDS011;2753;49.196;8.286;2023-07-29T04:00:26;6.37;;;3.00;;
5460;SDS011;2753;49.196;8.286;2023-07-29T04:02:52;3.43;;;3.13;;
5460;SDS011;2753;49.196;8.286;2023-07-29T04:05:18;6.73;;;3.00;;
5460;SDS011;2753;49.196;8.286;2023-07-29T04:07:44;11.53;;;3.47;;
5460;SDS011;2753;49.196;8.286;2023-07-29T04:10:09;7.47;;;4.37;;
5460;SDS011;2753;49.196;8.286;2023-07-29T04:12:35;7.97;;;4.30;;
5460;SDS011;2753;49.196;8.286;2023-07-29T04:15:01;7.10;;;4.40;;
5460;SDS011;2753;49.196;8.286;2023-07-29T04:17:27;14.33;;;4.77;;
5460;SDS011;2753;49.196;8.286;2023-07-29T04:19:53;12.13;;;4.67;;
5460;SDS011;2753;49.196;8.286;2023-07-29T04:22:18;7.03;;;3.87;;
5460;SDS011;2753;49.196;8.286;2023-07-29T04:24:44;4.73;;;3.70;;
5460;SDS011;2753;49.196;8.286;2023-07-29T04:27:10;7.30;;;4.03;;
5460;SDS011;2753;49.196;8.286;2023-07-29T04:29:35;10.53;;;4.57;;
5460;SDS011;2753;49.196;8.286;2023-07-29T04:32:04;6.07;;;4.27;;
5460;SDS011;2753;49.196;8.286;2023-07-29T04:34:30;4.83;;;4.33;;
5460;SDS011;2753;49.196;8.286;2023-07-29T04:36:56;12.40;;;4.37;;
5460;SDS011;2753;49.196;8.286;2023-07-29T04:39:22;6.20;;;3.87;;
5460;SDS011;2753;49.196;8.286;2023-07-29T04:41:47;5.23;;;4.00;;
5460;SDS011;2753;49.196;8.286;2023-07-29T04:44:13;7.77;;;2.80;;
5460;SDS011;2753;49.196;8.286;2023-07-29T04:46:39;4.33;;;4.03;;
5460;SDS011;2753;49.196;8.286;2023-07-29T04:49:05;6.80;;;3.33;;
5460;SDS011;2753;49.196;8.286;2023-07-29T04:51:31;4.20;;;3.27;;
5460;SDS011;2753;49.196;8.286;2023-07-29T04:53:57;7.17;;;3.80;;
5460;SDS011;2753;49.196;8.286;2023-07-29T04:56:23;5.60;;;3.03;;
5460;SDS011;2753;49.196;8.286;2023-07-29T04:58:48;4.80;;;3.03;;
5460;SDS011;2753;49.196;8.286;2023-07-29T05:01:14;7.67;;;3.70;;
5460;SDS011;2753;49.196;8.286;2023-07-29T05:03:40;3.83;;;3.17;;
5460;SDS011;2753;49.196;8.286;2023-07-29T05:06:05;3.33;;;3.00;;
5460;SDS011;2753;49.196;8.286;2023-07-29T05:08:31;4.10;;;2.87;;
5460;SDS011;2753;49.196;8.286;2023-07-29T05:10:57;5.40;;;3.30;;
5460;SDS011;2753;49.196;8.286;2023-07-29T05:13:23;3.83;;;2.80;;
5460;SDS011;2753;49.196;8.286;2023-07-29T05:15:49;5.00;;;3.20;;
5460;SDS011;2753;49.196;8.286;2023-07-29T05:18:15;3.40;;;3.03;;
5460;SDS011;2753;49.196;8.286;2023-07-29T05:20:42;4.80;;;3.07;;
5460;SDS011;2753;49.196;8.286;2023-07-29T05:23:07;3.70;;;3.40;;
5460;SDS011;2753;49.196;8.286;2023-07-29T05:25:33;3.43;;;3.20;;
5460;SDS011;2753;49.196;8.286;2023-07-29T05:28:02;9.87;;;4.13;;
5460;SDS011;2753;49.196;8.286;2023-07-29T05:30:29;5.90;;;4.10;;
5460;SDS011;2753;49.196;8.286;2023-07-29T05:32:59;7.90;;;4.40;;
5460;SDS011;2753;49.196;8.286;2023-07-29T05:35:25;12.37;;;4.13;;
5460;SDS011;2753;49.196;8.286;2023-07-29T05:37:51;3.87;;;3.23;;
5460;SDS011;2753;49.196;8.286;2023-07-29T05:40:16;5.40;;;3.70;;
5460;SDS011;2753;49.196;8.286;2023-07-29T05:42:42;4.53;;;4.13;;
5460;SDS011;2753;49.196;8.286;2023-07-29T05:45:10;8.10;;;4.30;;
5460;SDS011;2753;49.196;8.286;2023-07-29T05:47:35;4.67;;;4.23;;
5460;SDS011;2753;49.196;8.286;2023-07-29T05:50:01;6.43;;;4.43;;
5460;SDS011;2753;49.196;8.286;2023-07-29T05:52:29;7.60;;;4.40;;
5460;SDS011;2753;49.196;8.286;2023-07-29T05:54:58;6.50;;;4.77;;
5460;SDS011;2753;49.196;8.286;2023-07-29T05:57:24;5.47;;;4.57;;
5460;SDS011;2753;49.196;8.286;2023-07-29T05:59:49;15.43;;;4.30;;
5460;SDS011;2753;49.196;8.286;2023-07-29T06:02:15;5.63;;;3.87;;
5460;SDS011;2753;49.196;8.286;2023-07-29T06:04:41;4.80;;;4.40;;
5460;SDS011;2753;49.196;8.286;2023-07-29T06:07:06;6.77;;;4.30;;
5460;SDS011;2753;49.196;8.286;2023-07-29T06:09:32;7.17;;;4.90;;
5460;SDS011;2753;49.196;8.286;2023-07-29T06:11:58;10.63;;;4.90;;
5460;SDS011;2753;49.196;8.286;2023-07-29T06:14:23;4.70;;;4.30;;
5460;SDS011;2753;49.196;8.286;2023-07-29T06:16:49;7.30;;;5.03;;
5460;SDS011;2753;49.196;8.286;2023-07-29T06:19:15;7.37;;;5.33;;
5460;SDS011;2753;49.196;8.286;2023-07-29T06:21:40;6.13;;;4.13;;
5460;SDS011;2753;49.196;8.286;2023-07-29T06:24:07;5.93;;;4.83;;
5460;SDS011;2753;49.196;8.286;2023-07-29T06:26:32;4.73;;;4.30;;
5460;SDS011;2753;49.196;8.286;2023-07-29T06:28:58;5.33;;;4.83;;
5460;SDS011;2753;49.196;8.286;2023-07-29T06:31:24;5.27;;;4.37;;
5460;SDS011;2753;49.196;8.286;2023-07-29T06:33:49;5.43;;;4.80;;
5460;SDS011;2753;49.196;8.286;2023-07-29T06:36:15;6.20;;;4.93;;
5460;SDS011;2753;49.196;8.286;2023-07-29T06:38:41;4.40;;;4.10;;
5460;SDS011;2753;49.196;8.286;2023-07-29T06:41:07;4.60;;;4.30;;
5460;SDS011;2753;49.196;8.286;2023-07-29T06:43:32;6.60;;;4.70;;
5460;SDS011;2753;49.196;8.286;2023-07-29T06:45:58;4.60;;;4.20;;
5460;SDS011;2753;49.196;8.286;2023-07-29T06:48:24;5.63;;;4.67;;
5460;SDS011;2753;49.196;8.286;2023-07-29T06:50:49;7.73;;;4.80;;
5460;SDS011;2753;49.196;8.286;2023-07-29T06:53:15;12.73;;;5.00;;
5460;SDS011;2753;49.196;8.286;2023-07-29T06:55:41;5.27;;;4.30;;
5460;SDS011;2753;49.196;8.286;2023-07-29T06:58:08;4.00;;;3.40;;
5460;SDS011;2753;49.196;8.286;2023-07-29T07:00:34;4.37;;;3.87;;
5460;SDS011;2753;49.196;8.286;2023-07-29T07:02:59;3.27;;;3.07;;
5460;SDS011;2753;49.196;8.286;2023-07-29T07:05:25;6.60;;;3.10;;
5460;SDS011;2753;49.196;8.286;2023-07-29T07:07:51;3.60;;;3.27;;
5460;SDS011;2753;49.196;8.286;2023-07-29T07:10:17;2.87;;;2.77;;
5460;SDS011;2753;49.196;8.286;2023-07-29T07:12:43;2.40;;;2.30;;
5460;SDS011;2753;49.196;8.286;2023-07-29T07:15:09;7.70;;;3.03;;
5460;SDS011;2753;49.196;8.286;2023-07-29T07:17:35;7.43;;;2.20;;
5460;SDS011;2753;49.196;8.286;2023-07-29T07:20:01;5.93;;;2.50;;
5460;SDS011;2753;49.196;8.286;2023-07-29T07:22:26;4.67;;;2.33;;
5460;SDS011;2753;49.196;8.286;2023-07-29T07:24:52;6.13;;;2.00;;
5460;SDS011;2753;49.196;8.286;2023-07-29T07:27:18;4.03;;;2.57;;
5460;SDS011;2753;49.196;8.286;2023-07-29T07:29:43;2.00;;;1.77;;
5460;SDS011;2753;49.196;8.286;2023-07-29T07:32:09;2.23;;;2.10;;
5460;SDS011;2753;49.196;8.286;2023-07-29T07:34:35;3.60;;;1.70;;
5460;SDS011;2753;49.196;8.286;2023-07-29T07:37:00;2.30;;;2.10;;
5460;SDS011;2753;49.196;8.286;2023-07-29T07:39:28;5.83;;;1.97;;
5460;SDS011;2753;49.196;8.286;2023-07-29T07:41:54;3.63;;;2.23;;
5460;SDS011;2753;49.196;8.286;2023-07-29T07:44:20;3.10;;;1.80;;
5460;SDS011;2753;49.196;8.286;2023-07-29T07:46:45;1.80;;;1.70;;
5460;SDS011;2753;49.196;8.286;2023-07-29T07:49:11;6.73;;;2.33;;
5460;SDS011;2753;49.196;8.286;2023-07-29T07:51:38;2.50;;;1.40;;
5460;SDS011;2753;49.196;8.286;2023-07-29T07:54:04;2.63;;;1.93;;
5460;SDS011;2753;49.196;8.286;2023-07-29T07:56:29;4.13;;;2.00;;
5460;SDS011;2753;49.196;8.286;2023-07-29T07:58:55;1.70;;;1.63;;
5460;SDS011;2753;49.196;8.286;2023-07-29T08:01:21;3.00;;;1.80;;
5460;SDS011;2753;49.196;8.286;2023-07-29T08:03:46;1.90;;;1.80;;
5460;SDS011;2753;49.196;8.286;2023-07-29T08:06:12;9.80;;;1.93;;
5460;SDS011;2753;49.196;8.286;2023-07-29T08:08:38;1.97;;;1.83;;
5460;SDS011;2753;49.196;8.286;2023-07-29T08:11:04;2.70;;;2.13;;
5460;SDS011;2753;49.196;8.286;2023-07-29T08:13:29;1.83;;;1.73;;
5460;SDS011;2753;49.196;8.286;2023-07-29T08:15:55;3.00;;;2.10;;
5460;SDS011;2753;49.196;8.286;2023-07-29T08:18:21;3.33;;;1.97;;
5460;SDS011;2753;49.196;8.286;2023-07-29T08:20:53;4.77;;;2.27;;
5460;SDS011;2753;49.196;8.286;2023-07-29T08:23:24;8.13;;;2.30;;
5460;SDS011;2753;49.196;8.286;2023-07-29T08:25:54;2.07;;;1.97;;
5460;SDS011;2753;49.196;8.286;2023-07-29T08:28:25;2.90;;;2.10;;
5460;SDS011;2753;49.196;8.286;2023-07-29T08:30:52;2.00;;;1.90;;
5460;SDS011;2753;49.196;8.286;2023-07-29T08:33:17;2.00;;;1.90;;
5460;SDS011;2753;49.196;8.286;2023-07-29T08:35:43;3.53;;;1.93;;
5460;SDS011;2753;49.196;8.286;2023-07-29T08:38:09;5.10;;;2.77;;
5460;SDS011;2753;49.196;8.286;2023-07-29T08:40:35;3.63;;;3.00;;
5460;SDS011;2753;49.196;8.286;2023-07-29T08:43:04;3.40;;;3.10;;
5460;SDS011;2753;49.196;8.286;2023-07-29T08:45:34;3.13;;;2.13;;
5460;SDS011;2753;49.196;8.286;2023-07-29T08:48:02;4.67;;;1.97;;
5460;SDS011;2753;49.196;8.286;2023-07-29T08:50:32;1.53;;;1.53;;
5460;SDS011;2753;49.196;8.286;2023-07-29T08:52:59;1.70;;;1.60;;
5460;SDS011;2753;49.196;8.286;2023-07-29T08:55:27;1.40;;;1.30;;
5460;SDS011;2753;49.196;8.286;2023-07-29T09:16:01;1.63;;;1.53;;
5460;SDS011;2753;49.196;8.286;2023-07-29T09:18:29;1.50;;;1.40;;
5460;SDS011;2753;49.196;8.286;2023-07-29T09:20:58;1.77;;;1.67;;
5460;SDS011;2753;49.196;8.286;2023-07-29T09:23:26;1.83;;;1.60;;
5460;SDS011;2753;49.196;8.286;2023-07-29T09:26:00;3.27;;;1.37;;
5460;SDS011;2753;49.196;8.286;2023-07-29T09:28:26;5.70;;;1.43;;
5460;SDS011;2753;49.196;8.286;2023-07-29T09:31:02;3.57;;;1.83;;
5460;SDS011;2753;49.196;8.286;2023-07-29T09:33:28;1.60;;;1.50;;
5460;SDS011;2753;49.196;8.286;2023-07-29T09:36:13;1.80;;;1.70;;
5460;SDS011;2753;49.196;8.286;2023-07-29T09:38:39;1.80;;;1.50;;
5460;SDS011;2753;49.196;8.286;2023-07-29T09:41:05;2.70;;;1.17;;
5460;SDS011;2753;49.196;8.286;2023-07-29T09:43:32;1.70;;;1.60;;
5460;SDS011;2753;49.196;8.286;2023-07-29T09:46:03;5.50;;;1.43;;
5460;SDS011;2753;49.196;8.286;2023-07-29T09:48:36;2.00;;;1.57;;
5460;SDS011;2753;49.196;8.286;2023-07-29T09:51:09;1.67;;;1.50;;
5460;SDS011;2753;49.196;8.286;2023-07-29T09:53:42;5.20;;;1.90;;
5460;SDS011;2753;49.196;8.286;2023-07-29T09:56:09;7.77;;;1.70;;
5460;SDS011;2753;49.196;8.286;2023-07-29T09:58:35;4.77;;;1.50;;
5460;SDS011;2753;49.196;8.286;2023-07-29T10:01:03;1.83;;;1.43;;
5460;SDS011;2753;49.196;8.286;2023-07-29T10:03:33;1.97;;;1.17;;
5460;SDS011;2753;49.196;8.286;2023-07-29T10:06:02;1.40;;;1.30;;
5460;SDS011;2753;49.196;8.286;2023-07-29T10:08:29;2.20;;;1.40;;
5460;SDS011;2753;49.196;8.286;2023-07-29T10:11:04;2.60;;;1.50;;
5460;SDS011;2753;49.196;8.286;2023-07-29T10:13:36;1.70;;;1.60;;
5460;SDS011;2753;49.196;8.286;2023-07-29T10:16:03;2.23;;;1.77;;
5460;SDS011;2753;49.196;8.286;2023-07-29T10:18:30;4.00;;;1.40;;
5460;SDS011;2753;49.196;8.286;2023-07-29T10:20:57;1.67;;;1.43;;
5460;SDS011;2753;49.196;8.286;2023-07-29T10:23:25;3.30;;;1.70;;
5460;SDS011;2753;49.196;8.286;2023-07-29T10:25:58;3.40;;;1.63;;
5460;SDS011;2753;49.196;8.286;2023-07-29T10:28:29;2.30;;;0.90;;
5460;SDS011;2753;49.196;8.286;2023-07-29T10:30:56;1.03;;;1.00;;
5460;SDS011;2753;49.196;8.286;2023-07-29T10:33:22;1.53;;;1.43;;
5460;SDS011;2753;49.196;8.286;2023-07-29T10:35:48;1.67;;;1.57;;
5460;SDS011;2753;49.196;8.286;2023-07-29T10:38:14;3.63;;;1.50;;
5460;SDS011;2753;49.196;8.286;2023-07-29T10:40:48;1.20;;;1.07;;
5460;SDS011;2753;49.196;8.286;2023-07-29T10:43:24;1.40;;;1.40;;
5460;SDS011;2753;49.196;8.286;2023-07-29T10:46:16;1.27;;;1.17;;
5460;SDS011;2753;49.196;8.286;2023-07-29T10:56:42;1.30;;;1.20;;
5460;SDS011;2753;49.196;8.286;2023-07-29T11:01:40;1.43;;;1.40;;
5460;SDS011;2753;49.196;8.286;2023-07-29T11:15:20;1.60;;;1.47;;
5460;SDS011;2753;49.196;8.286;2023-07-29T11:17:51;1.07;;;1.07;;
5460;SDS011;2753;49.196;8.286;2023-07-29T11:20:25;2.67;;;1.20;;
5460;SDS011;2753;49.196;8.286;2023-07-29T11:22:52;2.20;;;1.23;;
5460;SDS011;2753;49.196;8.286;2023-07-29T11:25:21;2.23;;;1.30;;
5460;SDS011;2753;49.196;8.286;2023-07-29T11:27:48;1.57;;;1.47;;
5460;SDS011;2753;49.196;8.286;2023-07-29T11:30:14;2.13;;;1.33;;
5460;SDS011;2753;49.196;8.286;2023-07-29T11:32:41;5.63;;;2.30;;
5460;SDS011;2753;49.196;8.286;2023-07-29T11:35:09;2.20;;;1.60;;
5460;SDS011;2753;49.196;8.286;2023-07-29T11:37:36;1.43;;;1.33;;
5460;SDS011;2753;49.196;8.286;2023-07-29T11:40:03;2.50;;;1.60;;
5460;SDS011;2753;49.196;8.286;2023-07-29T11:42:32;1.93;;;1.20;;
5460;SDS011;2753;49.196;8.286;2023-07-29T11:44:59;2.37;;;1.30;;
5460;SDS011;2753;49.196;8.286;2023-07-29T11:47:25;3.13;;;1.03;;
5460;SDS011;2753;49.196;8.286;2023-07-29T11:49:51;1.07;;;1.07;;
5460;SDS011;2753;49.196;8.286;2023-07-29T11:52:17;3.03;;;1.63;;
5460;SDS011;2753;49.196;8.286;2023-07-29T11:54:45;1.73;;;1.50;;
5460;SDS011;2753;49.196;8.286;2023-07-29T11:57:14;1.97;;;1.87;;
5460;SDS011;2753;49.196;8.286;2023-07-29T11:59:43;3.57;;;1.60;;
5460;SDS011;2753;49.196;8.286;2023-07-29T12:02:19;2.67;;;1.70;;
5460;SDS011;2753;49.196;8.286;2023-07-29T12:04:46;1.97;;;1.77;;
5460;SDS011;2753;49.196;8.286;2023-07-29T12:07:13;1.63;;;1.37;;
5460;SDS011;2753;49.196;8.286;2023-07-29T12:09:40;1.70;;;1.60;;
5460;SDS011;2753;49.196;8.286;2023-07-29T12:12:07;1.50;;;1.40;;
5460;SDS011;2753;49.196;8.286;2023-07-29T12:14:33;3.20;;;1.40;;
5460;SDS011;2753;49.196;8.286;2023-07-29T12:17:00;1.60;;;1.50;;
5460;SDS011;2753;49.196;8.286;2023-07-29T12:19:37;2.13;;;1.93;;
5460;SDS011;2753;49.196;8.286;2023-07-29T12:22:05;1.80;;;1.70;;
5460;SDS011;2753;49.196;8.286;2023-07-29T12:24:33;2.60;;;1.33;;
5460;SDS011;2753;49.196;8.286;2023-07-29T12:27:01;1.57;;;1.47;;
5460;SDS011;2753;49.196;8.286;2023-07-29T12:29:27;1.43;;;1.37;;
5460;SDS011;2753;49.196;8.286;2023-07-29T12:32:00;3.27;;;1.83;;
5460;SDS011;2753;49.196;8.286;2023-07-29T12:34:27;3.00;;;1.67;;
5460;SDS011;2753;49.196;8.286;2023-07-29T12:36:55;2.83;;;1.80;;
5460;SDS011;2753;49.196;8.286;2023-07-29T12:39:25;4.10;;;1.77;;
5460;SDS011;2753;49.196;8.286;2023-07-29T12:41:57;3.23;;;1.93;;
5460;SDS011;2753;49.196;8.286;2023-07-29T12:44:25;6.00;;;1.50;;
5460;SDS011;2753;49.196;8.286;2023-07-29T12:46:52;2.07;;;1.67;;
5460;SDS011;2753;49.196;8.286;2023-07-29T12:49:18;1.20;;;1.20;;
5460;SDS011;2753;49.196;8.286;2023-07-29T12:51:44;5.00;;;2.13;;
5460;SDS011;2753;49.196;8.286;2023-07-29T12:54:10;1.73;;;1.63;;
5460;SDS011;2753;49.196;8.286;2023-07-29T12:56:35;1.77;;;1.67;;
5460;SDS011;2753;49.196;8.286;2023-07-29T12:59:02;3.37;;;1.87;;
5460;SDS011;2753;49.196;8.286;2023-07-29T13:01:28;2.10;;;2.00;;
5460;SDS011;2753;49.196;8.286;2023-07-29T13:03:54;2.00;;;1.80;;
5460;SDS011;2753;49.196;8.286;2023-07-29T13:06:21;1.60;;;1.50;;
5460;SDS011;2753;49.196;8.286;2023-07-29T13:08:47;2.50;;;1.50;;
5460;SDS011;2753;49.196;8.286;2023-07-29T13:11:13;1.97;;;1.83;;
5460;SDS011;2753;49.196;8.286;2023-07-29T13:13:40;1.37;;;1.27;;
5460;SDS011;2753;49.196;8.286;2023-07-29T13:16:06;1.60;;;1.50;;
5460;SDS011;2753;49.196;8.286;2023-07-29T13:18:32;1.50;;;1.40;;
5460;SDS011;2753;49.196;8.286;2023-07-29T13:20:58;1.50;;;1.40;;
5460;SDS011;2753;49.196;8.286;2023-07-29T13:23:25;6.83;;;2.00;;
5460;SDS011;2753;49.196;8.286;2023-07-29T13:25:51;1.83;;;1.67;;
5460;SDS011;2753;49.196;8.286;2023-07-29T13:28:17;5.37;;;1.70;;
5460;SDS011;2753;49.196;8.286;2023-07-29T13:30:44;1.60;;;1.50;;
5460;SDS011;2753;49.196;8.286;2023-07-29T13:33:09;6.20;;;1.40;;
5460;SDS011;2753;49.196;8.286;2023-07-29T13:35:35;3.33;;;1.83;;
5460;SDS011;2753;49.196;8.286;2023-07-29T13:38:01;1.53;;;1.43;;
5460;SDS011;2753;49.196;8.286;2023-07-29T13:40:27;1.50;;;1.40;;
5460;SDS011;2753;49.196;8.286;2023-07-29T13:42:53;1.87;;;1.67;;
5460;SDS011;2753;49.196;8.286;2023-07-29T13:45:19;1.87;;;1.67;;
5460;SDS011;2753;49.196;8.286;2023-07-29T13:47:45;3.00;;;1.43;;
5460;SDS011;2753;49.196;8.286;2023-07-29T13:50:11;2.00;;;1.70;;
5460;SDS011;2753;49.196;8.286;2023-07-29T13:52:37;2.30;;;1.20;;
5460;SDS011;2753;49.196;8.286;2023-07-29T13:55:04;1.70;;;1.60;;
5460;SDS011;2753;49.196;8.286;2023-07-29T13:57:30;2.40;;;1.80;;
5460;SDS011;2753;49.196;8.286;2023-07-29T13:59:56;1.27;;;1.27;;
5460;SDS011;2753;49.196;8.286;2023-07-29T14:02:22;1.37;;;1.30;;
5460;SDS011;2753;49.196;8.286;2023-07-29T14:04:48;1.43;;;1.33;;
5460;SDS011;2753;49.196;8.286;2023-07-29T14:07:14;1.70;;;1.60;;
5460;SDS011;2753;49.196;8.286;2023-07-29T14:09:40;2.03;;;1.77;;
5460;SDS011;2753;49.196;8.286;2023-07-29T14:12:07;4.10;;;1.67;;
5460;SDS011;2753;49.196;8.286;2023-07-29T14:14:37;1.33;;;1.33;;
5460;SDS011;2753;49.196;8.286;2023-07-29T14:17:03;1.70;;;1.50;;
5460;SDS011;2753;49.196;8.286;2023-07-29T14:19:29;1.93;;;1.83;;
5460;SDS011;2753;49.196;8.286;2023-07-29T14:21:55;1.83;;;1.73;;
5460;SDS011;2753;49.196;8.286;2023-07-29T14:24:20;1.43;;;1.33;;
5460;SDS011;2753;49.196;8.286;2023-07-29T14:26:47;1.97;;;1.83;;
5460;SDS011;2753;49.196;8.286;2023-07-29T14:29:13;1.50;;;1.40;;
5460;SDS011;2753;49.196;8.286;2023-07-29T14:31:39;1.90;;;1.47;;
5460;SDS011;2753;49.196;8.286;2023-07-29T14:34:05;1.93;;;1.73;;
5460;SDS011;2753;49.196;8.286;2023-07-29T14:36:30;2.67;;;1.83;;
5460;SDS011;2753;49.196;8.286;2023-07-29T14:38:56;1.37;;;1.37;;
5460;SDS011;2753;49.196;8.286;2023-07-29T14:41:22;2.53;;;1.63;;
5460;SDS011;2753;49.196;8.286;2023-07-29T14:43:47;1.70;;;1.60;;
5460;SDS011;2753;49.196;8.286;2023-07-29T14:46:13;1.70;;;1.50;;
5460;SDS011;2753;49.196;8.286;2023-07-29T14:48:39;8.03;;;1.80;;
5460;SDS011;2753;49.196;8.286;2023-07-29T14:51:04;1.93;;;1.80;;
5460;SDS011;2753;49.196;8.286;2023-07-29T14:53:30;1.50;;;1.40;;
5460;SDS011;2753;49.196;8.286;2023-07-29T14:55:56;3.77;;;1.70;;
5460;SDS011;2753;49.196;8.286;2023-07-29T14:58:21;2.00;;;1.90;;
5460;SDS011;2753;49.196;8.286;2023-07-29T15:00:48;4.10;;;1.73;;
5460;SDS011;2753;49.196;8.286;2023-07-29T15:03:14;1.90;;;1.80;;
5460;SDS011;2753;49.196;8.286;2023-07-29T15:05:39;1.67;;;1.57;;
5460;SDS011;2753;49.196;8.286;2023-07-29T15:08:05;1.40;;;1.40;;
5460;SDS011;2753;49.196;8.286;2023-07-29T15:10:31;2.03;;;1.90;;
5460;SDS011;2753;49.196;8.286;2023-07-29T15:12:57;5.10;;;1.73;;
5460;SDS011;2753;49.196;8.286;2023-07-29T15:15:22;4.40;;;2.23;;
5460;SDS011;2753;49.196;8.286;2023-07-29T15:17:48;2.80;;;1.60;;
5460;SDS011;2753;49.196;8.286;2023-07-29T15:20:14;1.60;;;1.60;;
5460;SDS011;2753;49.196;8.286;2023-07-29T15:22:39;3.73;;;1.90;;
5460;SDS011;2753;49.196;8.286;2023-07-29T15:25:05;2.17;;;1.97;;
5460;SDS011;2753;49.196;8.286;2023-07-29T15:27:33;2.07;;;1.87;;
5460;SDS011;2753;49.196;8.286;2023-07-29T15:30:00;1.90;;;1.80;;
5460;SDS011;2753;49.196;8.286;2023-07-29T15:32:26;1.70;;;1.60;;
5460;SDS011;2753;49.196;8.286;2023-07-29T15:34:53;2.50;;;1.50;;
5460;SDS011;2753;49.196;8.286;2023-07-29T15:37:18;1.70;;;1.60;;
5460;SDS011;2753;49.196;8.286;2023-07-29T15:39:44;1.70;;;1.60;;
5460;SDS011;2753;49.196;8.286;2023-07-29T15:42:10;1.70;;;1.57;;
5460;SDS011;2753;49.196;8.286;2023-07-29T15:44:35;4.40;;;1.27;;
5460;SDS011;2753;49.196;8.286;2023-07-29T15:47:02;1.87;;;1.77;;
5460;SDS011;2753;49.196;8.286;2023-07-29T15:49:28;1.77;;;1.67;;
5460;SDS011;2753;49.196;8.286;2023-07-29T15:51:54;1.97;;;1.73;;
5460;SDS011;2753;49.196;8.286;2023-07-29T15:54:19;3.43;;;1.73;;
5460;SDS011;2753;49.196;8.286;2023-07-29T15:56:45;1.60;;;1.50;;
5460;SDS011;2753;49.196;8.286;2023-07-29T15:59:11;1.80;;;1.70;;
5460;SDS011;2753;49.196;8.286;2023-07-29T16:01:36;2.47;;;1.77;;